KGUS

Grissom ARB Airport

Peru, Indiana, USA
TAF KGUS 241900Z 2419/2601 12009KT 9999 OVC012 QNH2997INS BECMG 2508/2509 21006KT 8000 -SHRA OVC006 QNH2998INS BECMG 2514/2515 21010G15KT 9999 NSW OVC012 QNH2998INS TX21/2517Z TN18/2419Z
Issued Valid From Valid To
Sep-24 @ 19:00 UTC
(51 minutes ago)
Sep-24 @ 19:00 UTC
(51 minutes ago)
Sep-26 @ 01:00 UTC
(-1 days ago)
Sep-24 @ 19:00 to Sep-25 @ 08:00
TAF KGUS 241900Z 2419/2601 12009KT 9999 OVC012 QNH2997INS
Wind Visibility Clouds Readings
120° at 9 knots Greater than 6 miles
  • Overcast at 1,200' AGL
Altimeter 29.97" Hg
Pressure 1015 hPa
Becoming Sep-25 @ 08:00 to Sep-25 @ 14:00
BECMG 2508/2509 21006KT 8000 -SHRA OVC006 QNH2998INS
Wind Visibility Clouds Conditions Readings
210° at 6 knots 5.0 miles
  • Overcast at 600' AGL
  • Light Rain
Altimeter 29.97" Hg
Pressure 1015 hPa
Becoming Sep-25 @ 14:00 to Sep-26 @ 01:00
BECMG 2514/2515 21010G15KT 9999 NSW OVC012 QNH2998INS TX21/2517Z TN18/2419Z
Wind Visibility Clouds Conditions Readings
210° at 10 knots
 Gusting to 15 knots
Greater than 6 miles
  • Overcast at 1,200' AGL
Altimeter 29.97" Hg
Pressure 1015 hPa
TAF KGUS 241900Z 2419/2601 12009KT 9999 OVC012 QNH2997INS BECMG 2508/2509 21006KT 8000 -SHRA OVC006 QNH2998INS BECMG 2514/2515 21010G15KT 9999 NSW OVC012 QNH2998INS TX21/2517Z TN18/2419Z
Issued Sep-24 @ 19:00 UTC
(51 minutes ago)
Valid From Sep-24 @ 19:00 UTC
(51 minutes ago)
Valid To Sep-26 @ 01:00 UTC
(-1 days ago)
Sep-24 @ 19:00 - Sep-25 @ 08:00
Wind Visibility
120° at 9 knots Greater than 6 miles
Clouds
  • Overcast at 1,200' AGL
Becoming Sep-25 @ 08:00 - Sep-25 @ 14:00
Wind Visibility
210° at 6 knots 5.0 miles
Clouds
  • Overcast at 600' AGL
Conditions
  • Light Rain
Becoming Sep-25 @ 14:00 - Sep-26 @ 01:00
Wind Visibility
210° at 10 knots
 Gusting to 15 knots
Greater than 6 miles
Clouds
  • Overcast at 1,200' AGL
Conditions